Time;durP1;ratioP1;P1;durP2;ratioP2;P2;SDS_P1;SDS_P2;PMS_P1;PMS_P2;Temp;Humidity;BMP_temperature;BMP_pressure;BME280_temperature;BME280_humidity;BME280_pressure;Samples;Min_cycle;Max_cycle;Signal;HPM_P1;HPM_P2
2023/09/14 00:00:31;;;;;;;7.85;2.95;;;;;;;14.40;100.00;101234.44;5046833;28;20516;-67
2023/09/14 00:02:59;;;;;;;6.47;2.33;;;;;;;14.37;100.00;101227.56;5061195;28;20135;-68
2023/09/14 00:05:27;;;;;;;9.32;2.97;;;;;;;14.35;100.00;101232.09;5051878;28;20052;-69
2023/09/14 00:07:54;;;;;;;4.75;2.90;;;;;;;14.33;100.00;101236.66;5059478;28;20052;-68
2023/09/14 00:10:23;;;;;;;11.98;3.30;;;;;;;14.34;100.00;101234.84;5092075;28;20071;-69
2023/09/14 00:12:52;;;;;;;9.10;3.13;;;;;;;14.30;100.00;101238.66;5055055;28;20064;-70
2023/09/14 00:15:19;;;;;;;7.93;3.78;;;;;;;14.35;100.00;101241.84;5055018;28;20076;-69
2023/09/14 00:17:47;;;;;;;6.93;2.75;;;;;;;14.37;100.00;101240.81;5073902;28;20067;-70
2023/09/14 00:20:22;;;;;;;4.82;2.78;;;;;;;14.34;100.00;101238.34;5090749;28;20056;-72
2023/09/14 00:22:50;;;;;;;7.50;2.55;;;;;;;14.31;100.00;101238.53;5058717;28;20047;-71
2023/09/14 00:25:18;;;;;;;6.10;3.20;;;;;;;14.33;100.00;101241.09;5075641;28;20098;-69
2023/09/14 00:27:47;;;;;;;7.35;3.15;;;;;;;14.33;100.00;101238.47;5054969;28;20056;-68
2023/09/14 00:30:14;;;;;;;6.32;2.35;;;;;;;14.28;100.00;101241.41;5055326;28;20162;-67
2023/09/14 00:32:42;;;;;;;6.82;3.13;;;;;;;14.32;100.00;101249.97;5054315;28;21278;-69
2023/09/14 00:35:11;;;;;;;7.35;3.03;;;;;;;14.36;100.00;101252.34;5065393;28;20379;-67
2023/09/14 00:37:39;;;;;;;4.78;2.33;;;;;;;14.32;100.00;101256.16;5075287;28;20040;-68
2023/09/14 00:40:08;;;;;;;7.10;3.03;;;;;;;14.36;100.00;101244.41;5056595;28;20454;-67
2023/09/14 00:42:47;;;;;;;8.15;2.88;;;;;;;14.33;100.00;101254.34;5069469;28;20503;-66
2023/09/14 00:45:16;;;;;;;9.50;2.90;;;;;;;14.33;100.00;101254.34;5073588;28;20090;-67
2023/09/14 00:47:49;;;;;;;5.63;2.72;;;;;;;14.23;100.00;101259.38;5073239;28;20052;-69
2023/09/14 00:50:17;;;;;;;5.88;3.35;;;;;;;14.22;100.00;101254.16;5058751;28;20071;-70
2023/09/14 00:53:00;;;;;;;8.75;3.15;;;;;;;14.22;100.00;101257.66;5071757;28;20150;-69
2023/09/14 00:55:28;;;;;;;5.97;2.92;;;;;;;14.26;100.00;101259.16;5089281;28;20071;-71
2023/09/14 00:57:57;;;;;;;8.48;3.40;;;;;;;14.19;100.00;101253.44;5058107;28;20056;-70
2023/09/14 01:00:25;;;;;;;8.23;3.70;;;;;;;14.22;100.00;101262.97;5035731;28;20048;-68
2023/09/14 01:02:58;;;;;;;8.00;3.10;;;;;;;14.21;100.00;101263.06;5073765;28;20101;-67
2023/09/14 01:05:28;;;;;;;5.45;2.92;;;;;;;14.23;100.00;101261.16;5037792;28;20502;-68
2023/09/14 01:07:56;;;;;;;5.60;2.97;;;;;;;14.21;100.00;101260.44;5077213;28;20055;-67
2023/09/14 01:10:24;;;;;;;7.78;3.60;;;;;;;14.22;100.00;101264.75;5059311;28;20117;-67
2023/09/14 01:12:51;;;;;;;8.90;3.20;;;;;;;14.26;100.00;101261.81;5070590;28;20052;-68
2023/09/14 01:15:24;;;;;;;5.35;3.10;;;;;;;14.28;100.00;101259.09;5037244;28;20094;-68
2023/09/14 01:18:11;;;;;;;5.88;2.70;;;;;;;14.21;100.00;101258.63;5047498;28;20052;-68
2023/09/14 01:21:04;;;;;;;8.25;3.58;;;;;;;14.13;100.00;101256.44;5051232;28;20140;-69
2023/09/14 01:24:05;;;;;;;7.03;2.83;;;;;;;14.02;100.00;101268.69;5069339;28;20080;-68
2023/09/14 01:26:33;;;;;;;6.57;2.95;;;;;;;14.00;100.00;101265.28;5085976;28;20075;-69
2023/09/14 01:29:04;;;;;;;5.38;3.08;;;;;;;14.06;100.00;101268.41;5050596;28;20052;-69
2023/09/14 01:31:32;;;;;;;6.03;2.88;;;;;;;14.04;100.00;101258.84;5067737;28;20499;-68
2023/09/14 01:33:59;;;;;;;6.75;2.72;;;;;;;14.02;100.00;101271.34;5047890;28;20105;-68
2023/09/14 01:36:45;;;;;;;5.55;3.10;;;;;;;13.97;100.00;101268.13;5085301;28;20145;-69
2023/09/14 01:39:12;;;;;;;;;;;;;;;13.91;100.00;101267.56;5069053;28;20143;-67
2023/09/14 01:41:40;;;;;;;4.70;2.83;;;;;;;13.86;100.00;101266.13;5068763;28;20374;-68
2023/09/14 01:44:08;;;;;;;6.43;3.17;;;;;;;13.84;100.00;101268.88;5050354;28;20051;-68
2023/09/14 01:46:36;;;;;;;6.95;3.30;;;;;;;13.79;100.00;101276.28;5052664;28;20101;-68
2023/09/14 01:49:03;;;;;;;13.32;3.20;;;;;;;13.76;100.00;101275.59;5066377;28;20055;-70
2023/09/14 01:51:31;;;;;;;4.90;2.75;;;;;;;13.69;100.00;101272.50;5057878;28;20113;-69
2023/09/14 01:53:58;;;;;;;7.75;2.90;;;;;;;13.66;100.00;101273.53;5048691;28;20048;-69
2023/09/14 01:56:25;;;;;;;6.50;3.03;;;;;;;13.66;100.00;101276.16;5064929;28;20083;-68
2023/09/14 01:58:53;;;;;;;6.45;3.15;;;;;;;13.60;100.00;101265.13;5067447;28;20090;-69
2023/09/14 02:01:20;;;;;;;6.50;3.13;;;;;;;13.57;100.00;101276.75;5050171;28;20506;-68
2023/09/14 02:03:47;;;;;;;8.30;3.42;;;;;;;13.54;100.00;101263.69;5052871;28;20052;-69
2023/09/14 02:06:15;;;;;;;7.90;3.40;;;;;;;13.49;100.00;101275.50;5064618;28;20530;-68
2023/09/14 02:08:42;;;;;;;7.53;3.72;;;;;;;13.46;100.00;101278.31;5048694;28;20055;-68
2023/09/14 02:11:13;;;;;;;11.27;3.95;;;;;;;13.39;100.00;101280.50;5069405;28;20074;-67
2023/09/14 02:13:40;;;;;;;6.25;3.00;;;;;;;13.38;100.00;101278.81;5068816;28;20052;-68
2023/09/14 02:16:08;;;;;;;12.10;3.58;;;;;;;13.32;100.00;101274.72;5053713;28;20044;-67
2023/09/14 02:18:36;;;;;;;5.13;3.20;;;;;;;13.28;100.00;101283.78;5069146;28;20510;-68
2023/09/14 02:21:03;;;;;;;7.53;3.53;;;;;;;13.25;100.00;101280.47;5053068;28;20094;-68
2023/09/14 02:23:31;;;;;;;6.43;3.50;;;;;;;13.25;100.00;101283.13;5045671;28;20055;-69
2023/09/14 02:25:58;;;;;;;6.38;3.70;;;;;;;13.15;100.00;101286.28;5041283;28;20044;-69
2023/09/14 02:28:25;;;;;;;11.27;4.10;;;;;;;13.10;100.00;101291.00;5087724;28;20076;-69
2023/09/14 02:30:52;;;;;;;7.53;3.53;;;;;;;13.03;100.00;101284.34;5053550;28;20052;-68
2023/09/14 02:33:20;;;;;;;11.40;4.13;;;;;;;13.03;100.00;101287.00;5053121;28;20090;-68
2023/09/14 02:35:50;;;;;;;9.93;3.35;;;;;;;12.99;100.00;101293.41;5072502;28;20469;-69
2023/09/14 02:38:18;;;;;;;9.73;3.65;;;;;;;12.90;100.00;101283.38;5088536;28;20044;-68
2023/09/14 02:40:45;;;;;;;10.45;4.35;;;;;;;12.83;100.00;101296.09;5067569;28;20570;-69
2023/09/14 02:43:13;;;;;;;13.40;4.65;;;;;;;12.81;100.00;101311.16;5053875;28;20181;-67
2023/09/14 02:45:40;;;;;;;11.07;4.25;;;;;;;12.82;100.00;101307.56;5068879;28;20083;-70
2023/09/14 02:48:08;;;;;;;8.50;4.30;;;;;;;12.69;100.00;101306.56;5047358;28;20056;-68
2023/09/14 02:50:36;;;;;;;8.90;4.47;;;;;;;12.67;100.00;101313.75;5087489;28;20121;-69
2023/09/14 02:53:03;;;;;;;9.73;5.03;;;;;;;12.56;100.00;101303.81;5068495;28;20094;-67
2023/09/14 02:55:34;;;;;;;7.47;4.05;;;;;;;12.55;100.00;101309.16;5037872;28;20056;-68
2023/09/14 02:58:06;;;;;;;9.75;4.25;;;;;;;12.55;100.00;101309.16;5049454;28;20075;-69
2023/09/14 03:00:33;;;;;;;16.38;4.50;;;;;;;12.49;100.00;101312.16;5067186;28;20044;-71
2023/09/14 03:03:01;;;;;;;8.65;4.35;;;;;;;12.50;100.00;101311.19;5048907;28;20138;-68
2023/09/14 03:05:28;;;;;;;9.50;4.10;;;;;;;12.46;100.00;101307.03;5068485;28;20115;-67
2023/09/14 03:07:56;;;;;;;6.30;4.07;;;;;;;12.38;100.00;101305.69;5087858;28;20055;-68
2023/09/14 03:10:23;;;;;;;8.18;4.53;;;;;;;12.33;100.00;101310.34;5063265;28;20139;-69
2023/09/14 03:12:50;;;;;;;19.65;4.75;;;;;;;12.29;100.00;101308.84;5030104;28;20166;-69
2023/09/14 03:15:17;;;;;;;10.38;4.72;;;;;;;12.24;100.00;101317.91;5053971;28;20071;-69
2023/09/14 03:17:45;;;;;;;7.95;4.43;;;;;;;12.18;100.00;101313.84;5049619;28;20455;-68
2023/09/14 03:20:12;;;;;;;7.80;3.30;;;;;;;12.16;100.00;101316.56;5064143;28;20494;-68
2023/09/14 03:22:39;;;;;;;6.15;3.85;;;;;;;12.12;100.00;101316.81;5030966;28;20052;-69
2023/09/14 03:25:07;;;;;;;8.95;4.10;;;;;;;12.10;100.00;101316.03;5065443;28;20119;-70
2023/09/14 03:27:35;;;;;;;8.23;3.83;;;;;;;12.08;100.00;101323.19;5050709;28;20044;-68
2023/09/14 03:30:06;;;;;;;7.03;3.97;;;;;;;12.07;100.00;101329.41;5084168;28;20067;-69
2023/09/14 03:32:33;;;;;;;8.40;4.07;;;;;;;12.08;100.00;101323.19;5067282;28;20072;-72
2023/09/14 03:35:01;;;;;;;6.80;3.88;;;;;;;12.05;100.00;101326.84;5065582;28;20593;-69
2023/09/14 03:37:28;;;;;;;7.85;4.35;;;;;;;12.03;100.00;101326.09;5035217;28;20117;-68
2023/09/14 03:39:55;;;;;;;7.80;4.55;;;;;;;12.02;100.00;101331.44;5035511;28;20479;-68
2023/09/14 03:42:22;;;;;;;7.47;4.25;;;;;;;11.98;100.00;101335.16;5051535;28;20048;-68
2023/09/14 03:44:50;;;;;;;7.53;4.50;;;;;;;11.96;100.00;101337.88;5081545;28;20063;-67
2023/09/14 03:47:17;;;;;;;8.80;3.72;;;;;;;11.92;100.00;101336.34;5082749;28;20144;-68
2023/09/14 03:49:44;;;;;;;7.25;4.35;;;;;;;11.90;100.00;101341.72;5047555;28;20090;-68
2023/09/14 03:52:12;;;;;;;10.07;4.25;;;;;;;11.92;100.00;101341.63;5052887;28;20113;-69
2023/09/14 03:54:39;;;;;;;7.32;4.43;;;;;;;11.91;100.00;101338.13;5051030;28;20075;-68
2023/09/14 03:57:14;;;;;;;13.77;4.57;;;;;;;11.88;100.00;101342.72;5063426;28;21124;-69
2023/09/14 03:59:42;;;;;;;7.38;4.22;;;;;;;11.86;100.00;101348.09;5046415;28;20041;-69
2023/09/14 04:02:10;;;;;;;12.48;5.15;;;;;;;11.88;100.00;101342.72;5059564;28;20064;-74
2023/09/14 04:04:40;;;;;;;10.15;4.43;;;;;;;11.85;100.00;101341.09;5047388;28;20098;-67
2023/09/14 04:07:09;;;;;;;6.53;4.45;;;;;;;11.85;100.00;101345.53;5059409;28;20048;-68
2023/09/14 04:09:37;;;;;;;9.80;4.97;;;;;;;11.83;100.00;101342.97;5048858;28;20078;-69
2023/09/14 04:12:04;;;;;;;9.95;4.22;;;;;;;11.80;100.00;101342.25;5049997;28;20435;-68
2023/09/14 04:14:32;;;;;;;11.45;4.95;;;;;;;11.77;100.00;101356.44;5083339;28;20155;-68
2023/09/14 04:17:00;;;;;;;8.15;4.18;;;;;;;11.75;100.00;101357.44;5049161;28;20151;-68
2023/09/14 04:19:28;;;;;;;8.75;4.82;;;;;;;11.75;100.00;101360.09;5064577;28;20200;-68
2023/09/14 04:21:56;;;;;;;9.85;4.78;;;;;;;11.73;100.00;101362.81;5040850;28;20099;-67
2023/09/14 04:24:27;;;;;;;8.75;5.25;;;;;;;11.72;100.00;101361.13;5051959;28;20147;-68
2023/09/14 04:26:54;;;;;;;8.65;5.05;;;;;;;11.72;100.00;101363.75;5067237;28;20051;-68
2023/09/14 04:29:21;;;;;;;9.30;4.93;;;;;;;11.73;100.00;101365.44;5064377;28;20887;-69
2023/09/14 04:31:49;;;;;;;9.07;4.85;;;;;;;11.72;100.00;101363.75;5082539;28;20072;-70
2023/09/14 04:34:16;;;;;;;11.73;4.55;;;;;;;11.72;100.00;101365.53;5044700;28;20544;-69
2023/09/14 04:36:44;;;;;;;12.65;5.82;;;;;;;11.71;100.00;101369.09;5078284;28;20082;-71
2023/09/14 04:39:12;;;;;;;10.80;5.50;;;;;;;11.70;100.00;101368.25;5049366;28;20109;-72
2023/09/14 04:41:40;;;;;;;11.50;4.93;;;;;;;11.71;100.00;101366.44;5085941;28;20143;-68
2023/09/14 04:44:07;;;;;;;9.50;5.07;;;;;;;11.67;100.00;101373.69;5043001;28;20079;-70
2023/09/14 04:46:34;;;;;;;8.07;5.50;;;;;;;11.66;100.00;101372.84;5080683;28;20139;-68
2023/09/14 04:49:02;;;;;;;10.80;5.40;;;;;;;11.68;100.00;101379.81;5031575;28;20130;-71
2023/09/14 04:51:29;;;;;;;10.77;4.88;;;;;;;11.67;100.00;101376.34;5042985;28;20127;-69
2023/09/14 04:53:57;;;;;;;8.35;4.80;;;;;;;11.69;100.00;101387.63;5045153;28;20089;-69
2023/09/14 04:56:24;;;;;;;11.40;5.82;;;;;;;11.71;100.00;101382.28;5049699;28;20060;-69
2023/09/14 04:58:51;;;;;;;11.65;6.13;;;;;;;11.72;100.00;101384.84;5065147;28;20577;-69
2023/09/14 05:01:20;;;;;;;11.85;5.22;;;;;;;11.71;100.00;101388.44;5048638;28;20121;-69
2023/09/14 05:03:48;;;;;;;11.75;5.50;;;;;;;11.74;100.00;101382.97;5031302;28;20168;-69
2023/09/14 05:06:15;;;;;;;12.13;5.25;;;;;;;11.78;100.00;101387.16;5069407;28;20032;-69
2023/09/14 05:08:42;;;;;;;12.40;5.78;;;;;;;11.81;100.00;101391.44;5051446;28;20540;-68
2023/09/14 05:11:10;;;;;;;7.57;4.90;;;;;;;11.84;100.00;101393.94;5086531;28;20141;-68
2023/09/14 05:13:38;;;;;;;12.10;5.38;;;;;;;11.86;100.00;101400.00;5050363;28;20515;-69
2023/09/14 05:16:05;;;;;;;9.40;5.60;;;;;;;11.89;100.00;101399.84;5067661;28;20177;-69
2023/09/14 05:18:32;;;;;;;11.98;5.80;;;;;;;11.91;100.00;101400.59;5069269;28;20080;-68
2023/09/14 05:20:59;;;;;;;11.60;5.63;;;;;;;11.96;100.00;101403.84;5068068;28;20064;-70
2023/09/14 05:23:27;;;;;;;11.38;5.25;;;;;;;11.93;100.00;101411.06;5048946;28;20915;-70
2023/09/14 05:25:54;;;;;;;18.63;6.43;;;;;;;11.97;100.00;101410.84;5067133;28;20084;-69
2023/09/14 05:28:22;;;;;;;11.05;5.47;;;;;;;11.95;100.00;101414.50;5028118;28;20072;-71
2023/09/14 05:30:50;;;;;;;14.13;5.57;;;;;;;11.97;100.00;101417.91;5051358;28;20135;-70
2023/09/14 05:33:18;;;;;;;15.88;6.07;;;;;;;12.02;100.00;101418.50;5085842;28;20076;-69
2023/09/14 05:35:48;;;;;;;15.70;6.00;;;;;;;12.04;100.00;101425.44;5032021;28;20050;-68
2023/09/14 05:38:16;;;;;;;11.68;5.05;;;;;;;12.04;100.00;101424.56;5068755;28;20068;-68
2023/09/14 05:40:43;;;;;;;15.85;5.72;;;;;;;12.07;100.00;101424.44;5070669;28;20510;-69
2023/09/14 05:43:11;;;;;;;14.85;4.90;;;;;;;12.07;100.00;101430.56;5069156;28;20143;-70
2023/09/14 05:45:40;;;;;;;10.68;5.05;;;;;;;12.15;100.00;101425.69;5034486;28;20579;-74
2023/09/14 05:48:07;;;;;;;9.90;5.45;;;;;;;12.21;100.00;101423.69;5048402;28;20049;-70
2023/09/14 05:50:35;;;;;;;13.35;5.75;;;;;;;12.28;100.00;101432.97;5068513;28;20066;-69
2023/09/14 05:53:03;;;;;;;9.18;5.25;;;;;;;12.39;100.00;101443.84;5069033;28;20056;-70
2023/09/14 05:55:30;;;;;;;8.93;4.65;;;;;;;12.40;100.00;101441.09;5082493;28;20045;-70
2023/09/14 05:57:58;;;;;;;10.57;4.47;;;;;;;12.49;100.00;101437.13;5044059;28;20048;-68
2023/09/14 06:00:25;;;;;;;7.32;4.47;;;;;;;12.55;100.00;101443.84;5050907;28;20052;-69
2023/09/14 06:02:52;;;;;;;11.20;4.57;;;;;;;12.67;100.00;101451.97;5052623;28;20094;-69
2023/09/14 06:05:20;;;;;;;10.73;4.40;;;;;;;12.66;100.00;101444.13;5069367;28;20063;-70
2023/09/14 06:07:55;;;;;;;8.23;4.35;;;;;;;12.76;100.00;101445.34;5049058;28;20106;-69
2023/09/14 06:10:23;;;;;;;9.48;4.07;;;;;;;12.86;100.00;101454.44;5070868;28;20072;-68
2023/09/14 06:12:50;;;;;;;13.02;3.92;;;;;;;12.97;100.00;101453.00;5052883;28;20058;-70
2023/09/14 06:15:18;;;;;;;12.52;4.13;;;;;;;13.00;100.00;101450.19;5055037;28;20048;-69
2023/09/14 06:17:47;;;;;;;9.20;4.43;;;;;;;13.11;100.00;101459.22;5067134;28;20044;-72
2023/09/14 06:20:15;;;;;;;8.40;4.20;;;;;;;13.26;100.00;101456.69;5053177;28;20171;-68
2023/09/14 06:22:42;;;;;;;11.55;4.85;;;;;;;13.35;100.00;101453.53;5066368;28;20511;-69
2023/09/14 06:25:10;;;;;;;7.57;4.25;;;;;;;13.46;100.00;101448.44;5069577;28;20052;-69
2023/09/14 06:27:37;;;;;;;13.18;5.32;;;;;;;13.43;100.00;101453.94;5068809;28;20060;-68
2023/09/14 06:30:06;;;;;;;15.02;4.57;;;;;;;13.35;100.00;101450.88;5054385;28;20074;-69
2023/09/14 06:32:33;;;;;;;7.60;4.32;;;;;;;13.41;100.00;101456.66;5065841;28;20056;-68
2023/09/14 06:35:01;;;;;;;6.63;4.82;;;;;;;13.38;100.00;101463.94;5035567;28;20044;-72
2023/09/14 06:37:28;;;;;;;8.55;4.35;;;;;;;13.45;100.00;101464.41;5054810;28;20114;-70
2023/09/14 06:39:56;;;;;;;10.13;5.25;;;;;;;13.45;100.00;101472.34;5071448;28;20054;-68
2023/09/14 06:42:24;;;;;;;8.85;3.97;;;;;;;13.53;100.00;101470.13;5052446;28;20649;-68
2023/09/14 06:44:51;;;;;;;10.93;5.15;;;;;;;13.65;100.00;101475.56;5047690;28;20059;-68
2023/09/14 06:47:19;;;;;;;6.65;3.97;;;;;;;13.69;100.00;101473.59;5050269;28;20044;-67
2023/09/14 06:49:46;;;;;;;12.27;4.53;;;;;;;13.82;100.00;101473.69;5053614;28;20520;-71
2023/09/14 06:52:13;;;;;;;8.15;4.88;;;;;;;14.04;100.00;101466.19;5054304;28;20067;-68
2023/09/14 06:54:41;;;;;;;7.68;4.32;;;;;;;14.27;100.00;101471.91;5052518;28;20054;-70
2023/09/14 06:57:09;;;;;;;12.43;4.72;;;;;;;14.30;100.00;101467.25;5088508;28;20067;-69
2023/09/14 06:59:36;;;;;;;11.35;4.35;;;;;;;14.28;100.00;101466.53;5064034;28;20503;-69
2023/09/14 07:02:04;;;;;;;10.90;4.15;;;;;;;14.56;100.00;101475.44;5037879;28;20044;-67
2023/09/14 07:04:34;;;;;;;9.65;4.13;;;;;;;14.67;98.78;101476.47;5088302;28;20064;-69
2023/09/14 07:07:01;;;;;;;10.45;4.45;;;;;;;14.83;98.79;101465.75;5058021;28;20113;-70
2023/09/14 07:09:29;;;;;;;9.63;3.47;;;;;;;14.93;96.46;101471.34;5069760;28;20088;-69
2023/09/14 07:11:56;;;;;;;7.13;3.13;;;;;;;14.98;95.66;101479.00;5052715;28;20138;-69
2023/09/14 07:14:24;;;;;;;8.45;3.00;;;;;;;14.97;93.79;101480.78;5069977;28;20086;-73
2023/09/14 07:16:51;;;;;;;9.32;3.50;;;;;;;14.98;93.85;101486.94;5083476;28;20616;-69
2023/09/14 07:19:18;;;;;;;10.10;3.70;;;;;;;15.15;93.74;101492.03;5053250;28;20048;-68
2023/09/14 07:21:46;;;;;;;8.55;3.30;;;;;;;15.39;93.38;101494.88;5055603;28;20052;-71
2023/09/14 07:24:13;;;;;;;9.02;3.08;;;;;;;15.65;93.80;101494.06;5064907;28;20117;-69
2023/09/14 07:26:41;;;;;;;6.93;3.50;;;;;;;15.80;90.79;101493.97;5070452;28;20175;-69
2023/09/14 07:29:08;;;;;;;5.93;2.70;;;;;;;16.09;90.80;101492.88;5053868;28;20590;-70
2023/09/14 07:31:35;;;;;;;5.63;3.05;;;;;;;16.28;87.86;101503.09;5052027;28;20142;-68
2023/09/14 07:34:03;;;;;;;9.73;3.50;;;;;;;16.44;84.27;101505.53;5052880;28;20171;-70
2023/09/14 07:36:31;;;;;;;5.82;2.70;;;;;;;16.58;84.59;101507.25;5049799;28;20070;-70
2023/09/14 07:38:59;;;;;;;11.15;3.45;;;;;;;16.60;82.47;101505.31;5054512;28;20129;-70
2023/09/14 07:41:26;;;;;;;7.40;2.55;;;;;;;16.68;81.21;101508.28;5069998;28;20083;-70
2023/09/14 07:43:54;;;;;;;6.10;2.95;;;;;;;16.87;81.12;101514.03;5054262;28;20055;-70
2023/09/14 07:46:22;;;;;;;7.65;2.90;;;;;;;16.90;79.15;101513.81;5036713;28;20079;-69
2023/09/14 07:48:49;;;;;;;4.47;2.47;;;;;;;16.84;77.84;101511.59;5060039;28;20040;-69
2023/09/14 07:51:17;;;;;;;6.78;2.50;;;;;;;17.05;78.61;101513.66;5053797;28;20318;-71
2023/09/14 07:53:44;;;;;;;8.38;2.65;;;;;;;17.20;76.03;101518.75;5068435;28;20078;-69
2023/09/14 07:56:13;;;;;;;4.43;2.50;;;;;;;17.30;76.43;101515.41;5070430;28;20502;-69
2023/09/14 07:58:42;;;;;;;5.65;2.17;;;;;;;17.54;76.60;101528.72;5056724;28;20135;-70
2023/09/14 08:01:09;;;;;;;6.32;2.50;;;;;;;17.34;74.00;101533.72;5069268;28;20067;-68
2023/09/14 08:03:36;;;;;;;4.53;2.10;;;;;;;17.51;74.59;101544.91;5058900;28;20139;-70
2023/09/14 08:06:04;;;;;;;8.50;2.83;;;;;;;17.42;73.02;101538.44;5054112;28;20090;-70
2023/09/14 08:08:33;;;;;;;10.18;3.03;;;;;;;17.48;73.21;101540.69;5085380;28;20094;-69
2023/09/14 08:11:00;;;;;;;4.40;2.13;;;;;;;17.56;72.31;101538.31;5088503;28;20048;-68
2023/09/14 08:13:27;;;;;;;4.93;2.55;;;;;;;17.29;72.08;101542.97;5067580;28;20051;-69
2023/09/14 08:15:55;;;;;;;10.32;2.53;;;;;;;17.44;71.33;101537.38;5053307;28;20036;-69
2023/09/14 08:18:22;;;;;;;5.45;2.50;;;;;;;17.63;71.45;101544.88;5052340;28;20097;-70
2023/09/14 08:20:51;;;;;;;6.22;2.28;;;;;;;17.51;70.66;101547.56;5086621;28;20136;-69
2023/09/14 08:23:19;;;;;;;4.15;2.25;;;;;;;17.84;70.72;101541.63;5035071;28;20075;-68
2023/09/14 08:25:47;;;;;;;7.20;2.03;;;;;;;17.48;69.46;101539.84;5088131;28;20075;-68
2023/09/14 08:28:19;;;;;;;8.40;2.33;;;;;;;17.68;69.65;101533.88;5058027;28;20044;-69
2023/09/14 08:30:48;;;;;;;6.68;3.15;;;;;;;17.88;69.38;101543.94;5039190;28;20075;-69
2023/09/14 08:33:18;;;;;;;4.30;2.20;;;;;;;18.21;69.62;101553.00;5076396;28;20071;-68
2023/09/14 08:35:47;;;;;;;5.13;2.35;;;;;;;18.30;67.59;101548.78;5043679;28;20108;-70
2023/09/14 08:38:14;;;;;;;5.35;2.00;;;;;;;18.23;66.98;101541.22;5070306;28;20087;-68
2023/09/14 08:40:46;;;;;;;4.38;1.80;;;;;;;18.37;66.95;101545.53;5090619;28;20056;-69
2023/09/14 08:43:14;;;;;;;4.50;2.08;;;;;;;18.31;66.92;101545.13;5080416;28;20078;-68
2023/09/14 08:45:42;;;;;;;8.27;1.60;;;;;;;18.58;66.55;101542.16;5055275;28;20097;-70
2023/09/14 08:48:11;;;;;;;6.18;1.80;;;;;;;18.83;66.70;101543.78;5058470;28;20075;-71
2023/09/14 08:50:39;;;;;;;4.13;1.83;;;;;;;19.03;65.38;101551.03;5039192;28;20621;-70
2023/09/14 08:53:07;;;;;;;4.13;1.90;;;;;;;19.16;64.30;101554.41;5054293;28;20053;-72
2023/09/14 08:55:35;;;;;;;7.43;2.00;;;;;;;19.30;63.66;101553.31;5036835;28;20165;-67
2023/09/14 08:58:03;;;;;;;5.88;2.42;;;;;;;19.50;63.83;101559.72;5073256;28;20055;-68
2023/09/14 09:00:31;;;;;;;8.13;2.10;;;;;;;19.59;63.07;101560.78;5034508;28;20082;-69
2023/09/14 09:02:59;;;;;;;3.90;1.67;;;;;;;19.61;63.48;101559.69;5035855;28;20093;-69
2023/09/14 09:05:27;;;;;;;6.72;2.28;;;;;;;19.85;63.20;101564.81;5053751;28;21418;-70
2023/09/14 09:07:56;;;;;;;5.10;1.88;;;;;;;20.00;62.57;101569.91;5038274;28;20731;-70
2023/09/14 09:10:31;;;;;;;4.03;1.90;;;;;;;20.05;61.94;101567.69;5041662;28;20114;-71
2023/09/14 09:13:03;;;;;;;5.53;2.07;;;;;;;20.08;62.11;101578.09;5049609;28;20138;-69
2023/09/14 09:15:32;;;;;;;5.57;1.83;;;;;;;20.04;60.79;101566.84;5051669;28;20067;-69
2023/09/14 09:18:08;;;;;;;4.68;2.10;;;;;;;20.17;59.64;101566.63;5035616;28;20048;-71
2023/09/14 09:20:37;;;;;;;5.80;1.90;;;;;;;20.17;59.91;101559.47;5064867;28;20056;-68
2023/09/14 09:23:05;;;;;;;7.60;2.20;;;;;;;20.28;60.76;101553.22;5072179;28;20040;-69
2023/09/14 09:25:50;;;;;;;7.57;2.78;;;;;;;20.72;59.18;101556.59;5031850;28;20048;-68
2023/09/14 09:28:18;;;;;;;4.22;2.58;;;;;;;20.94;57.19;101558.25;5055627;28;20113;-69
2023/09/14 09:30:53;;;;;;;4.68;2.20;;;;;;;20.82;57.86;101559.31;5056364;28;20811;-68
2023/09/14 09:33:35;;;;;;;7.40;2.40;;;;;;;20.79;56.77;101560.41;5052678;28;20048;-68
2023/09/14 09:36:18;;;;;;;8.45;2.60;;;;;;;20.44;55.92;101566.97;5054319;28;20208;-68
2023/09/14 09:38:49;;;;;;;10.60;2.38;;;;;;;20.36;55.67;101573.97;5051173;28;20091;-71
2023/09/14 09:41:17;;;;;;;5.40;2.22;;;;;;;20.28;54.86;101573.75;5052727;28;20056;-69
2023/09/14 09:43:45;;;;;;;5.15;1.65;;;;;;;19.99;56.04;101574.38;5067617;28;20159;-73
2023/09/14 09:46:17;;;;;;;4.13;1.75;;;;;;;19.73;56.35;101572.06;5050785;28;20068;-70
2023/09/14 09:48:44;;;;;;;3.53;1.60;;;;;;;19.76;56.15;101575.44;5070341;28;20036;-72
2023/09/14 09:51:13;;;;;;;4.32;1.80;;;;;;;19.57;56.76;101568.91;5052435;28;20062;-69
2023/09/14 09:54:00;;;;;;;4.57;1.90;;;;;;;19.53;58.60;101571.94;5050248;28;21020;-71
2023/09/14 09:56:27;;;;;;;5.28;2.00;;;;;;;19.95;57.67;101575.63;5046928;28;20131;-70
2023/09/14 09:58:55;;;;;;;5.53;2.42;;;;;;;20.00;54.57;101580.59;5052470;28;20500;-72
2023/09/14 10:01:22;;;;;;;3.17;1.67;;;;;;;19.93;55.43;101577.56;5031401;28;20110;-72
2023/09/14 10:03:54;;;;;;;5.93;2.22;;;;;;;19.85;55.28;101572.84;5051241;28;20140;-72
2023/09/14 10:06:21;;;;;;;4.82;2.17;;;;;;;19.44;57.03;101577.06;5084887;28;20123;-70
2023/09/14 10:08:53;;;;;;;5.57;2.13;;;;;;;19.22;57.66;101574.44;5036615;28;20126;-71
2023/09/14 10:11:22;;;;;;;5.75;2.25;;;;;;;19.08;57.32;101575.53;5051582;28;20069;-70
2023/09/14 10:13:49;;;;;;;5.53;2.67;;;;;;;19.25;57.41;101578.69;5037544;28;20513;-69
2023/09/14 10:16:23;;;;;;;5.35;2.55;;;;;;;19.76;57.51;101580.78;5086773;28;20048;-69
2023/09/14 10:18:54;;;;;;;6.10;2.90;;;;;;;19.91;55.81;101575.03;5053634;28;20039;-72
2023/09/14 10:21:24;;;;;;;5.43;2.70;;;;;;;20.37;54.58;101564.94;5050122;28;20465;-69
2023/09/14 10:23:52;;;;;;;8.38;2.42;;;;;;;20.56;53.93;101565.09;5050941;28;20048;-68
2023/09/14 10:26:19;;;;;;;4.85;1.92;;;;;;;20.48;53.28;101564.91;5077721;28;20406;-68
2023/09/14 10:28:47;;;;;;;7.68;2.53;;;;;;;20.46;53.58;101577.53;5047428;28;20139;-70
2023/09/14 10:31:16;;;;;;;6.10;1.90;;;;;;;20.66;52.34;101575.84;5049675;28;20040;-72
2023/09/14 10:33:48;;;;;;;5.07;1.60;;;;;;;20.58;53.19;101570.28;5060590;28;20119;-70
2023/09/14 10:36:16;;;;;;;4.97;2.05;;;;;;;20.93;51.73;101572.59;5079385;28;20084;-70
2023/09/14 10:38:47;;;;;;;4.97;1.75;;;;;;;21.10;50.69;101576.47;5067613;28;20046;-70
2023/09/14 10:41:14;;;;;;;9.30;2.08;;;;;;;21.26;50.02;101571.44;5049646;28;20095;-71
2023/09/14 10:43:42;;;;;;;4.20;1.90;;;;;;;21.31;49.37;101573.72;5050423;28;20084;-71
2023/09/14 10:46:15;;;;;;;4.25;1.50;;;;;;;20.70;50.04;101570.09;5071195;28;20139;-71
2023/09/14 10:48:44;;;;;;;4.88;1.77;;;;;;;20.88;50.60;101575.66;5071317;28;20083;-70
2023/09/14 10:51:11;;;;;;;4.78;1.80;;;;;;;20.90;51.26;101560.34;5065813;28;20056;-73
2023/09/14 10:53:41;;;;;;;4.50;1.60;;;;;;;21.36;48.54;101556.28;5049681;28;20575;-71
2023/09/14 10:56:30;;;;;;;3.97;1.60;;;;;;;21.53;48.81;101561.97;5063195;28;20134;-69
2023/09/14 10:58:59;;;;;;;3.80;1.60;;;;;;;21.73;47.31;101564.50;5068589;28;20133;-70
2023/09/14 11:01:28;;;;;;;3.30;1.67;;;;;;;21.64;47.75;101570.69;5051426;28;20487;-69
2023/09/14 11:04:18;;;;;;;6.90;1.75;;;;;;;21.68;47.86;101557.88;5042894;28;20040;-68
2023/09/14 11:06:48;;;;;;;5.13;1.65;;;;;;;21.43;48.21;101565.47;5050542;28;20048;-67
2023/09/14 11:09:22;;;;;;;4.28;1.80;;;;;;;21.69;47.41;101565.75;5066247;28;20600;-70
2023/09/14 11:11:52;;;;;;;3.70;1.88;;;;;;;21.80;46.43;101556.75;5051670;28;20048;-69
2023/09/14 11:14:24;;;;;;;3.20;1.40;;;;;;;22.16;46.51;101551.69;5051768;28;20064;-69
2023/09/14 11:16:57;;;;;;;3.40;1.58;;;;;;;22.65;45.64;101558.66;5050416;28;20127;-70
2023/09/14 11:19:37;;;;;;;3.30;1.95;;;;;;;22.91;44.19;101558.84;5047933;28;20105;-70
2023/09/14 11:22:24;;;;;;;4.00;1.50;;;;;;;22.28;45.03;101552.38;5081262;28;20165;-72
2023/09/14 11:24:54;;;;;;;5.60;1.63;;;;;;;22.73;44.79;101552.53;5051779;28;20527;-70
2023/09/14 11:27:24;;;;;;;2.72;1.63;;;;;;;23.08;44.76;101546.47;5047432;28;20613;-68